• Join FlightAware (Why Join?)
  • Login
  • US Flag 
02:03AM EDT


 

Airport Tracker/Info


-or-


 

Live Flight TrackerFlight Track Log ✈ AAL832 ✈ 13-Aug-2013 ✈ KORD - KMIA

Flight Track Log - Related Links

Times and Time Zones

All times are in EDT time to prevent confusion due to time zone crossing. See the AAL832 flight status page for this flight to view local times or setup timezone preferences in your user account.

Time Position Orientation Groundspeed Altitude Reporting Facility
EDT Latitude Longitude Course Direction KTS MPH feet Rate Location/Type
05:26PM 41.9840 -87.8870 90° East 176 203 700  Level FlightAware
05:26PM 41.9830 -87.8780 98° East 178 205 1,100 3,000 Climbing FlightAware
05:27PM 41.9800 -87.8710 120° Southeast 183 211 1,500 3,000 Climbing FlightAware
05:27PM 41.9770 -87.8660 129° Southeast 186 214 1,700 1,680 Climbing FlightAware
05:27PM 41.9610 -87.8460 137° Southeast 217 250 2,300 1,620 Climbing FlightAware
05:27PM 41.9440 -87.8270 140° Southeast 241 277 2,900 2,340 Climbing FlightAware
05:28PM 41.9280 -87.8100 142° Southeast 249 287 3,800 2,760 Climbing FlightAware
05:28PM 41.9170 -87.8060 165° South 256 295 4,200 2,280 Climbing FlightAware
05:28PM 41.9070 -87.8050 176° South 264 304 4,500 1,500 Climbing FlightAware
05:28PM 41.8820 -87.8030 177° South 278 320 4,900 420 Climbing FlightAware
05:29PM 41.8560 -87.8000 175° South 283 326 4,800 -180 Descending FlightAware
05:29PM 41.8290 -87.7980 177° South 281 323 4,800  Level FlightAware
05:29PM 41.8090 -87.7960 176° South 280 322 4,800 120 Level FlightAware
05:30PM 41.7840 -87.7910 172° South 278 320 4,900 1,140 Climbing FlightAware
05:30PM 41.7630 -87.7850 168° South 282 325 5,500 2,640 Climbing FlightAware
05:30PM 41.7360 -87.7760 166° South 288 331 6,500 3,060 Climbing FlightAware
05:31PM 41.7110 -87.7680 167° South 295 339 7,500 3,060 Climbing FlightAware
05:31PM 41.6860 -87.7550 159° South 297 342 8,500 3,000 Climbing FlightAware
05:31PM 41.6620 -87.7380 152° Southeast 300 345 9,500 1,740 Climbing FlightAware
05:32PM 41.6100 -87.7000 151° Southeast 353 406 10,200 1,200 Climbing FlightAware
05:32PM 41.5550 -87.6620 153° Southeast 391 450 11,000 2,040 Climbing FlightAware
05:33PM 41.4960 -87.6210 153° Southeast 399 459 12,700 2,640 Climbing FlightAware
05:34PM 41.4420 -87.5840 153° Southeast 414 476 14,000 2,580 Climbing FlightAware
05:34PM 41.4010 -87.5660 162° South 414 476 15,100 3,060 Climbing FlightAware
05:35PM 41.3390 -87.5570 174° South 411 473 16,900 3,000 Climbing FlightAware
05:35PM 41.2700 -87.5460 173° South 418 481 18,600 2,640 Climbing FlightAware
05:36PM 41.2030 -87.5340 172° South 427 491 20,000 2,400 Climbing FlightAware
05:36PM 41.1280 -87.5140 169° South 438 504 21,600 2,100 Climbing FlightAware
05:37PM 41.0500 -87.4930 169° South 451 519 22,800 2,040 Climbing FlightAware
05:38PM 40.9840 -87.4750 168° South 456 525 24,000 2,160 Climbing FlightAware
05:38PM 40.9060 -87.4540 168° South 460 529 25,300 1,980 Climbing FlightAware
05:39PM 40.8280 -87.4330 168° South 466 536 26,500 1,800 Climbing FlightAware
05:39PM 40.7750 -87.4190 169° South 470 541 27,200 1,680 Climbing FlightAware
05:40PM 40.6910 -87.3970 169° South 474 545 28,300 1,800 Climbing FlightAware
05:40PM 40.6150 -87.3770 169° South 472 543 29,500 1,920 Climbing FlightAware
05:41PM 40.5610 -87.3590 166° South 472 543 30,400 1,800 Climbing FlightAware
05:42PM 40.4740 -87.3220 162° South 474 545 31,600 1,500 Climbing FlightAware
05:42PM 40.3970 -87.2890 162° South 479 551 32,300 1,260 Climbing FlightAware
05:43PM 40.3320 -87.2620 162° South 480 552 33,000 1,500 Climbing FlightAware
05:43PM 40.2540 -87.2280 162° South 478 550 34,000 1,560 Climbing FlightAware
05:44PM 40.1910 -87.2020 163° South 475 547 34,800 1,620 Climbing FlightAware
05:44PM 40.1030 -87.1650 162° South 466 536 36,000 1,560 Climbing FlightAware
05:45PM 40.0340 -87.1370 163° South 461 531 36,800 1,200 Climbing FlightAware
05:46PM 39.9620 -87.0950 156° South 473 544 37,400 840 Climbing FlightAware
05:46PM 39.9020 -87.0460 148° Southeast 480 552 37,800 600 Climbing FlightAware
05:47PM 39.8370 -86.9910 147° Southeast 483 556 38,100 660 Climbing FlightAware
05:47PM 39.7650 -86.9310 147° Southeast 486 559 38,600 660 Climbing FlightAware
05:48PM 39.7120 -86.8860 147° Southeast 485 558 38,900 300 Climbing FlightAware
05:49PM 39.6340 -86.8200 147° Southeast 487 560 39,000 60 Climbing FlightAware
05:49PM 39.5720 -86.7680 147° Southeast 484 557 39,000  Level FlightAware
05:50PM 39.5060 -86.7140 148° Southeast 485 558 39,000  Level FlightAware
05:50PM 39.4350 -86.6550 147° Southeast 486 559 39,000  Level FlightAware
05:51PM 39.3670 -86.5990 148° Southeast 487 560 39,000  Level FlightAware
05:51PM 39.3100 -86.5520 147° Southeast 488 562 39,000  Level FlightAware
05:52PM 39.2380 -86.4930 148° Southeast 489 563 39,000  Level FlightAware
05:53PM 39.1710 -86.4380 148° Southeast 490 564 39,000  Level FlightAware
05:53PM 39.1020 -86.3810 147° Southeast 491 565 39,000  Level FlightAware
05:54PM 39.0340 -86.3260 148° Southeast 491 565 39,000  Level FlightAware
05:55PM 38.9540 -86.2600 147° Southeast 493 567 39,000  Level FlightAware
05:55PM 38.8890 -86.2080 148° Southeast 494 568 39,000  Level FlightAware
05:56PM 38.8240 -86.1550 148° Southeast 494 568 39,000  Level FlightAware
05:56PM 38.7580 -86.1010 147° Southeast 495 570 39,000  Level FlightAware
05:57PM 38.6790 -86.0380 148° Southeast 494 568 39,000  Level FlightAware
05:57PM 38.6180 -85.9880 147° Southeast 495 570 39,000  Level FlightAware
05:58PM 38.5510 -85.9350 148° Southeast 494 568 39,000  Level FlightAware
05:59PM 38.4790 -85.8760 147° Southeast 493 567 39,000  Level FlightAware
05:59PM 38.4180 -85.8280 148° Southeast 492 566 39,000  Level FlightAware
06:00PM 38.3470 -85.7710 148° Southeast 491 565 39,000  Level FlightAware
06:00PM 38.2790 -85.7170 148° Southeast 489 563 39,000  Level FlightAware
06:01PM 38.2110 -85.6630 148° Southeast 488 562 39,000  Level FlightAware
06:02PM 38.1420 -85.6080 148° Southeast 485 558 39,000  Level FlightAware
06:02PM 38.0800 -85.5590 148° Southeast 483 556 39,000  Level FlightAware
06:03PM 38.0140 -85.5060 148° Southeast 481 554 39,000  Level FlightAware
06:03PM 37.9460 -85.4530 148° Southeast 479 551 39,000  Level FlightAware
06:04PM 37.8780 -85.3990 148° Southeast 477 549 39,000  Level FlightAware
06:04PM 37.8130 -85.3480 148° Southeast 474 545 39,000  Level FlightAware
06:05PM 37.7560 -85.3040 149° Southeast 473 544 39,000  Level FlightAware
06:06PM 37.6757 -85.2409 148° Southeast 39,000  Level FlightAware ADS-B
06:06PM 37.6681 -85.2350 148° Southeast 473 544 39,000  Level FlightAware ADS-B
06:06PM 37.6105 -85.1900 148° Southeast 473 544 39,000  Level FlightAware ADS-B
06:07PM 37.5535 -85.1456 148° Southeast 474 545 39,000  Level FlightAware ADS-B
06:07PM 37.4969 -85.1015 148° Southeast 476 548 39,000  Level FlightAware ADS-B
06:08PM 37.4396 -85.0570 148° Southeast 479 551 39,000  Level FlightAware ADS-B
06:08PM 37.3690 -85.0023 148° Southeast 482 555 39,000  Level FlightAware ADS-B
06:09PM 37.3077 -84.9548 148° Southeast 482 555 39,000  Level FlightAware ADS-B
06:09PM 37.2454 -84.9068 148° Southeast 483 556 39,000  Level FlightAware ADS-B
06:10PM 37.1821 -84.8581 148° Southeast 483 556 39,000  Level FlightAware ADS-B
06:11PM 37.1065 -84.7999 148° Southeast 483 556 39,000  Level FlightAware ADS-B
06:11PM 37.0364 -84.7463 149° Southeast 482 555 39,000  Level FlightAware ADS-B
06:12PM 36.9768 -84.7007 149° Southeast 481 554 39,000  Level FlightAware ADS-B
06:12PM 36.9094 -84.6492 149° Southeast 482 555 39,000  Level FlightAware ADS-B
06:13PM 36.8513 -84.6051 149° Southeast 482 555 39,000  Level FlightAware ADS-B
06:13PM 36.7941 -84.5615 149° Southeast 483 556 39,000  Level FlightAware ADS-B
06:14PM 36.7362 -84.5176 149° Southeast 484 557 39,000  Level FlightAware ADS-B
06:14PM 36.6777 -84.4732 149° Southeast 486 559 39,000  Level FlightAware ADS-B
06:15PM 36.6195 -84.4292 149° Southeast 486 559 39,000  Level FlightAware ADS-B
06:15PM 36.5609 -84.3848 149° Southeast 487 560 39,000  Level FlightAware ADS-B
06:16PM 36.5030 -84.3412 149° Southeast 488 562 39,000  Level FlightAware ADS-B
06:16PM 36.4450 -84.2976 149° Southeast 488 562 39,000  Level FlightAware ADS-B
06:17PM 36.3871 -84.2541 149° Southeast 486 559 39,000  Level FlightAware ADS-B
06:17PM 36.3290 -84.2105 149° Southeast 484 557 39,000  Level FlightAware ADS-B
06:18PM 36.2702 -84.1665 149° Southeast 483 556 39,000  Level FlightAware ADS-B
06:18PM 36.2123 -84.1232 149° Southeast 484 557 39,000  Level FlightAware ADS-B
06:19PM 36.1526 -84.0788 149° Southeast 483 556 39,000  Level FlightAware ADS-B
06:20PM 36.0941 -84.0352 149° Southeast 481 554 39,000  Level FlightAware ADS-B
06:20PM 36.0351 -83.9913 149° Southeast 480 552 39,000  Level FlightAware ADS-B
06:21PM 35.9781 -83.9491 149° Southeast 479 551 39,000  Level FlightAware ADS-B
06:21PM 35.9086 -83.8976 149° Southeast 477 549 39,000  Level FlightAware ADS-B
06:22PM 35.8523 -83.8521 147° Southeast 479 551 39,000  Level FlightAware ADS-B
06:22PM 35.7956 -83.8059 147° Southeast 477 549 39,000  Level FlightAware ADS-B
06:23PM 35.7388 -83.7599 147° Southeast 478 550 39,000  Level FlightAware ADS-B
06:23PM 35.6809 -83.7131 147° Southeast 477 549 39,000  Level FlightAware ADS-B
06:24PM 35.6243 -83.6674 147° Southeast 477 549 39,000  Level FlightAware ADS-B
06:24PM 35.5674 -83.6214 147° Southeast 477 549 39,000  Level FlightAware ADS-B
06:25PM 35.4933 -83.5618 147° Southeast 476 548 39,000  Level FlightAware ADS-B
06:25PM 35.4370 -83.5165 147° Southeast 474 545 39,000  Level FlightAware ADS-B
06:26PM 35.3813 -83.4717 147° Southeast 472 543 39,000  Level FlightAware ADS-B
06:27PM 35.3170 -83.4202 147° Southeast 470 541 39,000  Level FlightAware ADS-B
06:27PM 35.2627 -83.3768 147° Southeast 468 539 39,000  Level FlightAware ADS-B
06:28PM 35.1914 -83.3199 147° Southeast 466 536 39,000  Level FlightAware ADS-B
06:28PM 35.1266 -83.2684 147° Southeast 466 536 39,000  Level FlightAware ADS-B
06:29PM 35.0720 -83.2250 147° Southeast 462 532 39,000  Level FlightAware ADS-B
06:29PM 35.0320 -83.1936 147° Southeast 458 527 39,000  Level FlightAware ADS-B
06:29PM 35.0041 -83.1756 152° Southeast 453 521 39,000  Level FlightAware ADS-B
06:30PM 34.9819 -83.1638 156° South 450 518 39,000  Level FlightAware ADS-B
06:30PM 34.9212 -83.1394 162° South 447 514 39,000  Level FlightAware ADS-B
06:31PM 34.8547 -83.1137 162° South 446 513 39,000  Level FlightAware ADS-B
06:31PM 34.7932 -83.0900 162° South 446 513 39,000  Level FlightAware ADS-B
06:32PM 34.7341 -83.0674 163° South 445 512 39,000  Level FlightAware ADS-B
06:32PM 34.6736 -83.0443 163° South 445 512 39,000  Level FlightAware ADS-B
06:33PM 34.6029 -83.0173 163° South 446 513 39,000  Level FlightAware ADS-B
06:33PM 34.5420 -82.9940 163° South 446 513 39,000  Level FlightAware ADS-B
06:34PM 34.4260 -82.9500 163° South 445 512 39,000  Level FlightAware
06:35PM 34.3560 -82.9230 162° South 445 512 39,000  Level FlightAware
06:35PM 34.2910 -82.8980 162° South 445 512 39,000  Level FlightAware
06:36PM 34.2210 -82.8720 163° South 446 513 39,000  Level FlightAware
06:37PM 34.1610 -82.8490 162° South 446 513 39,000  Level FlightAware
06:37PM 34.0850 -82.8210 163° South 446 513 39,000  Level FlightAware
06:38PM 34.0190 -82.7960 163° South 446 513 39,000  Level FlightAware
06:38PM 33.9460 -82.7680 162° South 447 514 39,000  Level FlightAware
06:39PM 33.8663 -82.7383 163° South 448 516 39,000  Level FlightAware ADS-B
06:40PM 33.7980 -82.7130 163° South 451 519 39,000  Level FlightAware
06:40PM 33.7429 -82.6921 162° South 451 519 39,000  Level FlightAware ADS-B
06:41PM 33.6550 -82.6590 163° South 453 521 39,000  Level FlightAware
06:41PM 33.5860 -82.6340 163° South 452 520 39,000  Level FlightAware
06:42PM 33.5190 -82.6090 163° South 452 520 39,000  Level FlightAware
06:43PM 33.4410 -82.5800 163° South 452 520 39,000  Level FlightAware
06:43PM 33.3760 -82.5560 163° South 454 522 39,000  Level FlightAware
06:44PM 33.3050 -82.5290 162° South 456 525 39,000  Level FlightAware
06:44PM 33.2350 -82.5030 163° South 457 526 39,000 -120 Level FlightAware
06:45PM 33.1650 -82.4770 163° South 457 526 38,900 -360 Descending FlightAware
06:46PM 33.0740 -82.4430 163° South 457 526 38,500 -660 Descending FlightAware
06:46PM 32.9980 -82.4160 163° South 455 524 38,000 -420 Descending FlightAware
06:47PM 32.9140 -82.3840 162° South 454 522 38,000  Level FlightAware
06:48PM 32.8590 -82.3640 163° South 455 524 38,000  Level FlightAware
06:49PM 32.7410 -82.3210 163° South 452 520 38,000  Level FlightAware
06:49PM 32.6680 -82.2940 163° South 451 519 38,000  Level FlightAware
06:50PM 32.5900 -82.2670 164° South 451 519 38,000  Level FlightAware
06:50PM 32.5300 -82.2450 163° South 452 520 38,000  Level FlightAware
06:51PM 32.4560 -82.2180 163° South 454 522 38,000  Level FlightAware
06:51PM 32.3790 -82.1900 163° South 455 524 38,000  Level FlightAware
06:52PM 32.3790 -82.1900 163° South 457 526 38,000  Level FlightAware
06:53PM 32.2310 -82.1350 163° South 457 526 38,000  Level FlightAware
06:53PM 32.1430 -82.1030 163° South 458 527 38,000  Level FlightAware
06:54PM 32.0810 -82.0800 163° South 458 527 38,000  Level FlightAware
06:55PM 32.0190 -82.0560 162° South 458 527 38,000  Level FlightAware
06:55PM 31.9580 -82.0320 162° South 458 527 38,000  Level FlightAware
06:56PM 31.8940 -82.0080 162° South 458 527 38,000  Level FlightAware
06:56PM 31.8340 -81.9850 162° South 458 527 38,000  Level FlightAware
06:57PM 31.7730 -81.9620 162° South 458 527 38,000  Level FlightAware
06:58PM 31.7110 -81.9380 162° South 458 527 38,000  Level FlightAware
06:58PM 31.6490 -81.9140 162° South 458 527 38,000  Level FlightAware
06:59PM 31.5880 -81.8910 162° South 458 527 38,000  Level FlightAware
06:59PM 31.5260 -81.8670 162° South 458 527 38,000  Level FlightAware
07:00PM 31.3510 -81.8220 168° South 446 513 38,000  Level FlightAware
07:01PM 31.2900 -81.8000 163° South 446 513 38,000  Level FlightAware
07:01PM 31.2300 -81.7780 163° South 446 513 38,000  Level FlightAware
07:02PM 31.1680 -81.7560 163° South 446 513 38,000  Level FlightAware
07:03PM 31.1080 -81.7350 163° South 446 513 38,000  Level FlightAware
07:03PM 31.0460 -81.7130 163° South 446 513 38,000  Level FlightAware
07:04PM 30.9830 -81.6900 163° South 446 513 38,000  Level FlightAware
07:04PM 30.9230 -81.6690 163° South 446 513 38,000  Level FlightAware
07:05PM 30.8630 -81.6470 163° South 446 513 38,000  Level FlightAware
07:06PM 30.6790 -81.5860 164° South 449 517 38,000  Level FlightAware
07:06PM 30.5990 -81.5580 163° South 448 516 38,000  Level FlightAware
07:07PM 30.5410 -81.5370 163° South 444 511 38,000  Level FlightAware
07:07PM 30.4720 -81.5140 164° South 442 509 38,000  Level FlightAware
07:08PM 30.3910 -81.4860 163° South 441 507 38,000  Level FlightAware
07:09PM 30.3290 -81.4640 163° South 441 507 38,000  Level FlightAware
07:09PM 30.2640 -81.4410 163° South 439 505 38,000 -180 Level FlightAware
07:10PM 30.1930 -81.4170 164° South 435 501 37,800 -600 Descending FlightAware
07:10PM 30.1350 -81.3970 163° South 422 486 37,300 -1,080 Descending FlightAware
07:11PM 30.0610 -81.3720 164° South 414 476 36,600 -720 Descending FlightAware
07:12PM 29.9830 -81.3440 163° South 413 475 36,300 -480 Descending FlightAware
07:12PM 29.9860 -81.3450 344° North 415 478 36,000 -240 Descending FlightAware
07:13PM 29.9830 -81.3440 164° South 413 475 36,000  Level FlightAware
07:14PM 29.9250 -81.3240 163° South 413 475 36,000  Level FlightAware
07:15PM 29.9840 -81.3450 343° North 415 478 36,000  Level FlightAware
07:15PM 29.9260 -81.3240 163° South 415 478 36,000  Level FlightAware
07:16PM 29.8730 -81.3060 164° South 415 478 36,000  Level FlightAware
07:16PM 29.8170 -81.2860 163° South 415 478 36,000  Level FlightAware
07:17PM 29.7590 -81.2660 163° South 415 478 36,000  Level FlightAware
07:18PM 29.7030 -81.2460 163° South 415 478 36,000  Level FlightAware
07:18PM 29.6450 -81.2250 163° South 415 478 36,000  Level FlightAware
07:19PM 29.5890 -81.2060 164° South 415 478 36,000  Level FlightAware
07:20PM 29.1240 -81.0410 163° South 415 478 36,000  Level FlightAware
07:20PM 29.0260 -81.0020 161° South 415 478 36,000  Level FlightAware
07:21PM 28.9700 -80.9790 160° South 415 478 36,000  Level FlightAware
07:22PM 28.8950 -80.9480 160° South 414 476 36,000  Level FlightAware
07:22PM 28.8360 -80.9250 161° South 413 475 36,000  Level FlightAware
07:23PM 28.7770 -80.9010 160° South 413 475 36,000 -360 Level FlightAware
07:23PM 28.6920 -80.8680 161° South 412 474 35,600 -720 Descending FlightAware
07:24PM 28.6270 -80.8420 161° South 414 476 35,100 -960 Descending FlightAware
07:25PM 28.5540 -80.8130 161° South 420 483 34,400 -960 Descending FlightAware
07:25PM 28.4880 -80.7870 161° South 426 490 33,900 -960 Descending FlightAware
07:26PM 28.4230 -80.7610 161° South 430 495 33,300 -960 Descending FlightAware
07:26PM 28.3570 -80.7350 161° South 437 503 32,800 -900 Descending FlightAware
07:27PM 28.2840 -80.7060 161° South 439 505 32,200 -660 Descending FlightAware
07:28PM 28.2150 -80.6790 161° South 441 507 32,000 -180 Descending FlightAware
07:28PM 28.1240 -80.6430 161° South 440 506 32,000  Level FlightAware
07:29PM 28.0620 -80.6200 162° South 442 509 32,000  Level FlightAware
07:30PM 27.9890 -80.5950 163° South 443 510 32,000  Level FlightAware
07:30PM 27.9290 -80.5740 163° South 443 510 32,000  Level FlightAware
07:31PM 27.8690 -80.5540 164° South 443 510 32,000  Level FlightAware
07:31PM 27.8090 -80.5330 163° South 443 510 32,000  Level FlightAware
07:32PM 27.7490 -80.5120 163° South 443 510 32,000  Level FlightAware
07:33PM 27.6870 -80.4910 163° South 443 510 32,000  Level FlightAware
07:33PM 27.6240 -80.4690 163° South 443 510 32,000 -2,820 Level FlightAware
07:34PM 27.5050 -80.4190 160° South 29,000 -4,380 Descending FlightAware
07:34PM 27.4290 -80.3880 160° South 429 494 27,000 -1,920 Descending FlightAware
07:35PM 27.3740 -80.3650 160° South 428 493 26,600 -1,680 Descending FlightAware
07:36PM 27.2930 -80.3330 161° South 415 478 24,800 -2,100 Descending FlightAware
07:36PM 27.2290 -80.3070 160° South 409 471 24,000 -780 Descending FlightAware
07:37PM 27.1640 -80.2810 160° South 410 472 24,000 -960 Level FlightAware
07:37PM 27.0990 -80.2550 160° South 408 470 22,900 -2,160 Descending FlightAware
07:38PM 27.0380 -80.2300 160° South 409 471 21,500 -2,520 Descending FlightAware
07:39PM 26.9750 -80.2050 161° South 392 451 20,000 -2,520 Descending FlightAware
07:39PM 26.9150 -80.1810 160° South 395 455 18,600 -2,520 Descending FlightAware
07:40PM 26.8550 -80.1570 160° South 381 438 17,100 -2,520 Descending FlightAware
07:40PM 26.7970 -80.1330 160° South 374 430 15,700 -1,920 Descending FlightAware
07:41PM 26.7380 -80.1100 161° South 378 435 14,900 -720 Descending FlightAware
07:41PM 26.6810 -80.0880 161° South 368 423 14,900 -600 Level FlightAware
07:42PM 26.6200 -80.0760 170° South 377 434 14,200 -1,680 Descending FlightAware
07:43PM 26.5610 -80.0660 171° South 372 428 13,000 -1,140 Descending FlightAware
07:43PM 26.5010 -80.0560 172° South 346 398 12,900 -120 Descending FlightAware
07:44PM 26.4470 -80.0460 171° South 346 398 12,900  Level FlightAware
07:44PM 26.3900 -80.0370 172° South 343 395 12,900 -900 Level FlightAware
07:45PM 26.3360 -80.0270 171° South 330 380 11,900 -1,740 Descending FlightAware
07:46PM 26.2820 -80.0180 172° South 324 373 10,900 -1,800 Descending FlightAware
07:46PM 26.2590 -80.0160 176° South 326 375 10,400 -1,020 Descending FlightAware
07:46PM 26.1990 -80.0290 191° South 335 386 10,000 -540 Descending FlightAware
07:47PM 26.1680 -80.0370 193° South 332 382 9,900 -180 Descending FlightAware
07:47PM 26.1310 -80.0480 195° South 329 379 9,900  Level FlightAware
07:47PM 26.1170 -80.0520 194° South 319 367 9,900  Level FlightAware
07:48PM 26.0810 -80.0620 194° South 299 344 9,900 -720 Level FlightAware
07:48PM 26.0550 -80.0700 195° South 287 330 9,400 -1,380 Descending FlightAware
07:48PM 26.0280 -80.0770 193° South 284 327 9,000 -1,380 Descending FlightAware
07:49PM 26.0020 -80.0840 194° South 282 325 8,500 -1,380 Descending FlightAware
07:49PM 25.9710 -80.0950 198° South 288 331 8,000 -1,200 Descending FlightAware
07:49PM 25.9650 -80.0990 211° Southwest 286 329 7,900 -600 Descending FlightAware
07:49PM 25.9590 -80.1040 217° Southwest 279 321 7,900  Level FlightAware
07:50PM 25.9520 -80.1150 235° Southwest 284 327 7,900  Level FlightAware
07:50PM 25.9380 -80.1400 238° Southwest 282 325 7,900  Level FlightAware
07:50PM 25.9240 -80.1650 238° Southwest 280 322 7,900  Level FlightAware
07:51PM 25.9110 -80.1980 246° West 279 321 7,900  Level FlightAware
07:51PM 25.9020 -80.2240 249° West 280 322 7,900 -180 Level FlightAware
07:51PM 25.8950 -80.2510 254° West 283 326 7,800 -960 Descending FlightAware
07:52PM 25.9000 -80.2790 281° West 282 325 7,300 -1,500 Descending FlightAware
07:52PM 25.9130 -80.3120 294° West 280 322 6,700 -1,680 Descending FlightAware
07:52PM 25.9240 -80.3390 294° West 277 319 6,100 -1,500 Descending FlightAware
07:53PM 25.9360 -80.3680 295° West 275 316 5,600 -1,260 Descending FlightAware
07:53PM 25.9390 -80.3880 279° West 263 303 5,300 -900 Descending FlightAware
07:53PM 25.9370 -80.4150 265° West 243 280 5,100 -1,200 Descending FlightAware
07:54PM 25.9340 -80.4430 263° West 229 264 4,400 -1,800 Descending FlightAware
07:54PM 25.9320 -80.4490 250° West 229 264 4,200 -1,500 Descending FlightAware
07:54PM 25.9210 -80.4620 227° Southwest 213 245 3,900 -720 Descending FlightAware
07:54PM 25.9120 -80.4650 197° South 197 227 3,900 -840 Level FlightAware
07:55PM 25.8950 -80.4580 160° South 193 222 3,500 -1,380 Descending FlightAware
07:55PM 25.8800 -80.4470 147° Southeast 187 215 3,000 -1,380 Descending FlightAware
07:55PM 25.8700 -80.4360 135° Southeast 179 206 2,700 -1,200 Descending FlightAware
07:56PM 25.8610 -80.4220 126° Southeast 177 204 2,300 -1,200 Descending FlightAware
07:56PM 25.8520 -80.4060 122° Southeast 176 203 1,900 -900 Descending FlightAware
07:56PM 25.8450 -80.3910 117° Southeast 171 197 1,700 -780 Descending FlightAware
07:56PM 25.8400 -80.3820 122° Southeast 166 191 1,500 -960 Descending FlightAware
07:57PM 25.8300 -80.3640 122° Southeast 141 162 1,100 -840 Descending FlightAware
07:57PM 25.8200 -80.3430 118° Southeast 140 161 700 -720 Descending FlightAware
07:58PM 25.8140 -80.3310 119° Southeast 139 160 500 -720 Descending FlightAware
07:58PM 25.8060 -80.3150 119° Southeast 140 161 200 -780 Descending FlightAware
07:58PM 25.8000 -80.3040 121° Southeast 142 163 -600 Descending FlightAware
07:59PM 25.7940 -80.2920 119° Southeast 120 138  Level FlightAware